St Leonards-on-Sea, United Kingdom
Current Conditions -  °F | °C
As of 1:50 PM on Saturday 25 Oct 2014 (Local Time) from EGMD Reporting Station
Broken Clouds Broken Clouds  
Wind Chill: 59°   Ceiling: 4200
Heat Index: 59°   Visibility: 6mi
Dew Point: 48°   Wind: 13mph
Humidity: 67%   Direction: 260°W
Pressure: 30.12"   Gusts: NA
Location:  50.85°N, 0.56°E
Report Text: EGMD 251250Z 26011KT 9999 BKN042 15/09 Q1020
Loading
Personal Weather Stations






























Interactive Weather Map
Tropical Storm Tracking
New forecast layout! Learn more

10-Day Weather Forecast

Advertisements
Track Severe Weather on mobile